Bookmark and Share
Track history (hours):
 

Damian Wise

More information available from US FCC via Universal Licensing System and Coast Guard Vessel Documentation Center.

Last reported at 2014-Apr-21 04:32 UTC. Time now 2014-Apr-21 04:51 UTC.
Position N 29°56' W 090°20'.

; draft 2.9 m.

Type: Towing. MMSI: 367422770.

NotesDate/timePositionNaut miles runAvg speedWind from/ knotsBaromVisibWave heightAir tempDewpointWater temp
2014-Apr-21 04:32N 29°56' W 090°20'0 0.0
2014-Apr-21 03:33N 29°56' W 090°20'0 0.0
2014-Apr-21 01:33N 29°56' W 090°20'0 0.0
2014-Apr-21 00:22N 29°56' W 090°20'0 0.0
2014-Apr-20 23:29N 29°56' W 090°20'0 0.1
2014-Apr-20 20:33N 29°56' W 090°20'0 0.0
2014-Apr-20 19:30N 29°56' W 090°20'1 0.3
2014-Apr-20 17:33N 29°56' W 090°20'0 0.0
2014-Apr-20 16:32N 29°56' W 090°20'0 0.0
2014-Apr-20 14:27N 29°56' W 090°20'2 2.5
2014-Apr-20 13:33N 29°56' W 090°22'0 0.0
2014-Apr-20 12:33N 29°56' W 090°22'2 1.8
2014-Apr-20 11:33N 29°56' W 090°20'0 0.1
2014-Apr-20 10:32N 29°56' W 090°20'0 0.0
2014-Apr-20 09:33N 29°56' W 090°20'2 2.3
2014-Apr-20 08:33N 29°57' W 090°23'0 0.0
2014-Apr-20 07:33N 29°57' W 090°23'0 0.0
2014-Apr-20 06:33N 29°56' W 090°23'0 0.3
2014-Apr-20 05:33N 29°56' W 090°23'2 1.2
2014-Apr-20 03:33N 29°56' W 090°20'0 0.1
2014-Apr-20 02:32N 29°56' W 090°20'0 0.0
2014-Apr-20 01:32N 29°56' W 090°20'2 2.2
2014-Apr-20 00:33N 29°56' W 090°22'0 0.2
2014-Apr-19 23:08N 29°56' W 090°22'2 2.6
2014-Apr-19 22:32N 29°56' W 090°20'0 0.0
2014-Apr-19 21:33N 29°56' W 090°20'0 0.4
2014-Apr-19 20:33N 29°56' W 090°20'0 0.3
2014-Apr-19 19:17N 29°56' W 090°20'0 0.0
2014-Apr-19 18:13N 29°56' W 090°20'0 0.0
2014-Apr-19 17:31N 29°56' W 090°20'0 0.0
2014-Apr-19 16:31N 29°56' W 090°20'0 0.0
2014-Apr-19 15:33N 29°56' W 090°20'0 0.3
2014-Apr-19 14:33N 29°56' W 090°20'2 0.1
2014-Apr-18 12:33N 29°56' W 090°22'1 1.4
2014-Apr-18 11:32N 29°56' W 090°20'0 0.0
2014-Apr-18 09:28N 29°56' W 090°20'0 0.5
2014-Apr-18 08:32N 29°56' W 090°20'1 0.6
2014-Apr-18 07:31N 29°56' W 090°21'0 0.5
2014-Apr-18 06:31N 29°56' W 090°20'0 0.0
2014-Apr-18 05:33N 29°56' W 090°20'0 0.0
2014-Apr-18 04:32N 29°56' W 090°20'0 0.0
2014-Apr-18 02:33N 29°56' W 090°20'0 0.4
2014-Apr-18 01:23N 29°56' W 090°19'0 0.6
2014-Apr-18 00:33N 29°56' W 090°20'2 1.6
2014-Apr-17 23:31N 29°56' W 090°22'2 1.9
2014-Apr-17 22:33N 29°56' W 090°20'1 0.0
2014-Apr-17 11:28N 29°56' W 090°20'0 0.0
2014-Apr-17 10:32N 29°56' W 090°20'0 0.1
2014-Apr-17 09:33N 29°56' W 090°20'0 0.0
2014-Apr-17 08:34N 29°56' W 090°20'0 0.4
2014-Apr-17 07:33N 29°56' W 090°20'1 0.5
2014-Apr-17 06:31N 29°56' W 090°19'0 0.2
2014-Apr-17 05:27N 29°56' W 090°20'0 0.1
2014-Apr-17 04:28N 29°56' W 090°20'0 0.4
2014-Apr-17 03:32N 29°56' W 090°20'0 0.3
2014-Apr-17 02:31N 29°56' W 090°20'0 0.1
2014-Apr-17 01:33N 29°56' W 090°20'0 0.2
2014-Apr-17 00:33N 29°56' W 090°20'1 1.0
2014-Apr-16 23:29N 29°56' W 090°21'1 0.1
2014-Apr-16 12:33N 29°56' W 090°20'1 0.7
2014-Apr-16 11:33N 29°56' W 090°19'1 0.6
2014-Apr-16 10:28N 29°56' W 090°20'0 0.0
2014-Apr-16 09:26N 29°56' W 090°20'0 0.4
2014-Apr-16 08:33N 29°56' W 090°21'0 0.0
2014-Apr-16 07:33N 29°56' W 090°21'0 0.1
2014-Apr-16 06:33N 29°56' W 090°20'0 0.0
2014-Apr-16 05:34N 29°56' W 090°20'0 0.0
2014-Apr-16 04:32N 29°56' W 090°20'0 0.0
2014-Apr-16 03:33N 29°56' W 090°20'0 0.4
2014-Apr-16 02:34N 29°56' W 090°20'0 0.2
2014-Apr-16 01:33N 29°56' W 090°20'0 0.1
2014-Apr-16 00:33N 29°56' W 090°20'1 0.7
2014-Apr-15 23:33N 29°56' W 090°20'0 0.0
2014-Apr-15 07:30N 29°56' W 090°20'0 0.3
2014-Apr-15 06:34N 29°56' W 090°20'0 0.0
2014-Apr-15 05:34N 29°56' W 090°20'1 0.1
2014-Apr-15 00:34N 29°56' W 090°20'0 0.4
2014-Apr-14 23:33N 29°56' W 090°20'0 0.0
2014-Apr-14 07:33N 29°56' W 090°20'0 0.0
2014-Apr-14 06:34N 29°56' W 090°20'0 0.0
2014-Apr-14 05:33N 29°56' W 090°20'0 0.0
2014-Apr-13 21:14N 29°56' W 090°20'0 0.1
2014-Apr-13 20:30N 29°56' W 090°20'0 0.4
2014-Apr-13 19:29N 29°56' W 090°20'0 0.4
2014-Apr-13 18:32N 29°56' W 090°20'0 0.1
2014-Apr-13 17:33N 29°56' W 090°20'0 0.1
2014-Apr-13 16:28N 29°56' W 090°20'0 0.0
2014-Apr-13 15:31N 29°56' W 090°20'0 0.0
2014-Apr-13 12:31N 29°56' W 090°20'1 0.7
2014-Apr-13 11:33N 29°56' W 090°21'1 0.3
2014-Apr-13 09:28N 29°56' W 090°20'0 0.2
2014-Apr-13 08:33N 29°56' W 090°20'0 0.0
2014-Apr-13 07:33N 29°56' W 090°20'0 0.0
2014-Apr-13 06:32N 29°56' W 090°20'0 0.5
2014-Apr-13 05:33N 29°56' W 090°20'1 0.5
2014-Apr-13 04:33N 29°56' W 090°20'0 0.0
2014-Apr-13 03:33N 29°56' W 090°20'0 0.0
2014-Apr-13 02:33N 29°56' W 090°20'0 0.0
2014-Apr-13 01:33N 29°56' W 090°20'0 0.0
2014-Apr-13 00:31N 29°56' W 090°20'1 0.7
2014-Apr-12 23:32N 29°56' W 090°21'1 0.3
2014-Apr-12 21:27N 29°56' W 090°20'0 0.1
2014-Apr-12 20:26N 29°56' W 090°20'0 0.0
2014-Apr-12 19:32N 29°56' W 090°20'1 0.6
2014-Apr-12 18:32N 29°56' W 090°21'1 0.6
2014-Apr-12 17:33N 29°56' W 090°20'0 0.4
2014-Apr-12 16:20N 29°56' W 090°20'0 0.1
2014-Apr-12 12:30N 29°56' W 090°20'0 0.1
2014-Apr-12 11:22N 29°56' W 090°20'0 0.5
2014-Apr-12 10:32N 29°56' W 090°20'0 0.2
2014-Apr-12 08:33N 29°56' W 090°20'0 0.0
2014-Apr-12 07:26N 29°56' W 090°20'0 0.4
2014-Apr-12 06:26N 29°56' W 090°20'0 0.3
2014-Apr-12 05:26N 29°56' W 090°20'0 0.1
2014-Apr-12 04:23N 29°56' W 090°20'0 0.1
2014-Apr-12 03:31N 29°56' W 090°20'0 0.0
2014-Apr-12 02:33N 29°56' W 090°20'0 0.0
2014-Apr-12 01:29N 29°56' W 090°20'0 0.0
2014-Apr-12 00:27N 29°56' W 090°20'1 1.1
2014-Apr-11 23:33N 29°56' W 090°21'1 0.1
2014-Apr-11 11:33N 29°56' W 090°20'0 0.1
2014-Apr-11 09:25N 29°56' W 090°20'0 0.2
2014-Apr-11 08:33N 29°56' W 090°20'0 0.1
2014-Apr-11 07:31N 29°56' W 090°20'0 0.4
2014-Apr-11 06:31N 29°56' W 090°20'0 0.3
2014-Apr-11 05:33N 29°56' W 090°20'0 0.4
2014-Apr-11 04:32N 29°56' W 090°19'  

Dump ship's entire track history

sailing weather and tide predictions

Damian Wise — WDE9912 — position and weather